sensor_id;sensor_type;location;lat;lon;timestamp;pressure;altitude;pressure_sealevel;temperature;humidity
13869;BME280;7004;48.206;16.402;2023-05-23T00:01:51;99307.81;;;18.35;87.99
13869;BME280;7004;48.206;16.402;2023-05-23T00:04:20;99312.06;;;18.20;88.93
13869;BME280;7004;48.206;16.402;2023-05-23T00:06:46;99312.94;;;18.02;89.66
13869;BME280;7004;48.206;16.402;2023-05-23T00:09:16;99321.94;;;18.01;89.44
13869;BME280;7004;48.206;16.402;2023-05-23T00:11:42;99321.06;;;17.93;89.97
13869;BME280;7004;48.206;16.402;2023-05-23T00:14:12;99312.78;;;18.04;89.47
13869;BME280;7004;48.206;16.402;2023-05-23T00:16:43;99317.88;;;18.15;88.77
13869;BME280;7004;48.206;16.402;2023-05-23T00:19:10;99316.91;;;18.16;88.39
13869;BME280;7004;48.206;16.402;2023-05-23T00:21:41;99322.84;;;18.10;88.58
13869;BME280;7004;48.206;16.402;2023-05-23T00:24:08;99312.47;;;18.33;87.83
13869;BME280;7004;48.206;16.402;2023-05-23T00:26:38;99308.50;;;18.11;88.58
13869;BME280;7004;48.206;16.402;2023-05-23T00:29:04;99311.72;;;17.97;88.87
13869;BME280;7004;48.206;16.402;2023-05-23T00:31:30;99309.88;;;17.79;90.10
13869;BME280;7004;48.206;16.402;2023-05-23T00:33:56;99311.88;;;17.95;89.43
13869;BME280;7004;48.206;16.402;2023-05-23T00:36:22;99314.63;;;18.03;88.29
13869;BME280;7004;48.206;16.402;2023-05-23T00:38:48;99310.38;;;17.93;88.93
13869;BME280;7004;48.206;16.402;2023-05-23T00:41:15;99318.00;;;17.87;89.18
13869;BME280;7004;48.206;16.402;2023-05-23T00:43:44;99312.91;;;17.66;90.76
13869;BME280;7004;48.206;16.402;2023-05-23T00:46:10;99308.94;;;17.53;91.23
13869;BME280;7004;48.206;16.402;2023-05-23T00:48:36;99319.19;;;17.75;90.20
13869;BME280;7004;48.206;16.402;2023-05-23T00:51:03;99314.75;;;17.66;90.28
13869;BME280;7004;48.206;16.402;2023-05-23T00:53:30;99315.28;;;17.52;91.27
13869;BME280;7004;48.206;16.402;2023-05-23T00:55:56;99314.69;;;17.76;90.40
13869;BME280;7004;48.206;16.402;2023-05-23T00:58:22;99314.66;;;17.40;91.95
13869;BME280;7004;48.206;16.402;2023-05-23T01:00:49;99315.78;;;17.37;92.58
13869;BME280;7004;48.206;16.402;2023-05-23T01:03:15;99306.69;;;17.12;93.52
13869;BME280;7004;48.206;16.402;2023-05-23T01:05:43;99307.75;;;17.19;93.62
13869;BME280;7004;48.206;16.402;2023-05-23T01:08:10;99304.59;;;17.06;94.50
13869;BME280;7004;48.206;16.402;2023-05-23T01:10:36;99307.19;;;17.43;93.06
13869;BME280;7004;48.206;16.402;2023-05-23T01:13:12;99303.06;;;17.49;91.34
13869;BME280;7004;48.206;16.402;2023-05-23T01:16:17;99302.38;;;17.47;91.83
13869;BME280;7004;48.206;16.402;2023-05-23T01:19:13;99307.81;;;17.55;91.64
13869;BME280;7004;48.206;16.402;2023-05-23T01:21:44;99310.13;;;17.86;89.43
13869;BME280;7004;48.206;16.402;2023-05-23T01:24:42;99306.63;;;17.85;89.29
13869;BME280;7004;48.206;16.402;2023-05-23T01:27:51;99301.19;;;17.95;89.28
13869;BME280;7004;48.206;16.402;2023-05-23T01:30:20;99303.09;;;17.67;91.35
13869;BME280;7004;48.206;16.402;2023-05-23T01:32:50;99294.69;;;17.44;91.61
13869;BME280;7004;48.206;16.402;2023-05-23T01:35:26;99293.16;;;17.41;91.99
13869;BME280;7004;48.206;16.402;2023-05-23T01:37:56;99301.75;;;17.53;91.03
13869;BME280;7004;48.206;16.402;2023-05-23T01:40:23;99294.13;;;17.58;90.59
13869;BME280;7004;48.206;16.402;2023-05-23T01:42:52;99293.69;;;17.63;91.19
13869;BME280;7004;48.206;16.402;2023-05-23T01:45:20;99287.09;;;17.39;91.57
13869;BME280;7004;48.206;16.402;2023-05-23T01:47:49;99286.03;;;17.50;91.20
13869;BME280;7004;48.206;16.402;2023-05-23T01:50:16;99285.34;;;17.12;92.50
13869;BME280;7004;48.206;16.402;2023-05-23T01:52:43;99280.75;;;17.05;93.03
13869;BME280;7004;48.206;16.402;2023-05-23T01:55:11;99272.00;;;16.75;94.76
13869;BME280;7004;48.206;16.402;2023-05-23T01:57:41;99280.09;;;16.93;94.93
13869;BME280;7004;48.206;16.402;2023-05-23T02:00:09;99272.47;;;16.98;94.37
13869;BME280;7004;48.206;16.402;2023-05-23T02:02:36;99277.31;;;17.30;92.50
13869;BME280;7004;48.206;16.402;2023-05-23T02:05:03;99269.00;;;17.15;93.33
13869;BME280;7004;48.206;16.402;2023-05-23T02:07:31;99277.25;;;17.40;91.64
13869;BME280;7004;48.206;16.402;2023-05-23T02:09:57;99280.47;;;17.61;90.22
13869;BME280;7004;48.206;16.402;2023-05-23T02:12:24;99278.25;;;17.21;91.95
13869;BME280;7004;48.206;16.402;2023-05-23T02:14:50;99273.13;;;17.10;93.71
13869;BME280;7004;48.206;16.402;2023-05-23T02:17:18;99275.19;;;17.16;92.63
13869;BME280;7004;48.206;16.402;2023-05-23T02:19:44;99270.16;;;17.13;93.43
13869;BME280;7004;48.206;16.402;2023-05-23T02:22:10;99268.53;;;17.02;93.02
13869;BME280;7004;48.206;16.402;2023-05-23T02:24:36;99267.78;;;17.10;92.65
13869;BME280;7004;48.206;16.402;2023-05-23T02:27:03;99269.13;;;17.14;92.79
13869;BME280;7004;48.206;16.402;2023-05-23T02:29:29;99267.09;;;16.80;94.44
13869;BME280;7004;48.206;16.402;2023-05-23T02:31:55;99269.75;;;16.80;95.01
13869;BME280;7004;48.206;16.402;2023-05-23T02:34:22;99266.25;;;16.79;94.88
13869;BME280;7004;48.206;16.402;2023-05-23T02:36:49;99260.09;;;16.69;95.67
13869;BME280;7004;48.206;16.402;2023-05-23T02:39:16;99263.00;;;16.38;97.21
13869;BME280;7004;48.206;16.402;2023-05-23T02:41:42;99259.63;;;16.46;97.45
13869;BME280;7004;48.206;16.402;2023-05-23T02:44:08;99262.56;;;16.53;96.45
13869;BME280;7004;48.206;16.402;2023-05-23T02:46:34;99261.25;;;16.57;96.85
13869;BME280;7004;48.206;16.402;2023-05-23T02:49:00;99265.97;;;16.73;95.29
13869;BME280;7004;48.206;16.402;2023-05-23T02:51:26;99263.22;;;16.92;93.80
13869;BME280;7004;48.206;16.402;2023-05-23T02:53:52;99259.78;;;16.72;94.79
13869;BME280;7004;48.206;16.402;2023-05-23T02:56:19;99259.78;;;16.72;95.13
13869;BME280;7004;48.206;16.402;2023-05-23T02:58:47;99253.13;;;16.58;95.63
13869;BME280;7004;48.206;16.402;2023-05-23T03:01:13;99256.28;;;16.72;94.53
13869;BME280;7004;48.206;16.402;2023-05-23T03:03:39;99256.34;;;16.52;95.40
13869;BME280;7004;48.206;16.402;2023-05-23T03:06:06;99260.53;;;16.27;96.85
13869;BME280;7004;48.206;16.402;2023-05-23T03:08:35;99257.88;;;16.55;95.20
13869;BME280;7004;48.206;16.402;2023-05-23T03:11:01;99258.13;;;16.71;94.03
13869;BME280;7004;48.206;16.402;2023-05-23T03:13:27;99258.47;;;16.49;95.49
13869;BME280;7004;48.206;16.402;2023-05-23T03:15:53;99256.72;;;16.67;94.33
13869;BME280;7004;48.206;16.402;2023-05-23T03:18:19;99262.66;;;16.61;95.21
13869;BME280;7004;48.206;16.402;2023-05-23T03:20:46;99266.91;;;16.44;95.51
13869;BME280;7004;48.206;16.402;2023-05-23T03:23:12;99269.91;;;16.31;96.41
13869;BME280;7004;48.206;16.402;2023-05-23T03:25:38;99263.09;;;16.56;94.82
13869;BME280;7004;48.206;16.402;2023-05-23T03:28:04;99264.41;;;16.80;93.52
13869;BME280;7004;48.206;16.402;2023-05-23T03:30:30;99261.13;;;16.86;92.96
13869;BME280;7004;48.206;16.402;2023-05-23T03:32:56;99267.91;;;16.80;93.86
13869;BME280;7004;48.206;16.402;2023-05-23T03:35:22;99271.44;;;16.81;95.08
13869;BME280;7004;48.206;16.402;2023-05-23T03:37:48;99271.59;;;16.32;96.94
13869;BME280;7004;48.206;16.402;2023-05-23T03:40:15;99277.44;;;16.55;95.84
13869;BME280;7004;48.206;16.402;2023-05-23T03:42:41;99279.69;;;16.50;97.26
13869;BME280;7004;48.206;16.402;2023-05-23T03:45:07;99272.94;;;16.56;97.35
13869;BME280;7004;48.206;16.402;2023-05-23T03:47:33;99279.22;;;16.55;96.72
13869;BME280;7004;48.206;16.402;2023-05-23T03:49:59;99281.69;;;16.76;96.25
13869;BME280;7004;48.206;16.402;2023-05-23T03:52:25;99288.09;;;16.93;95.19
13869;BME280;7004;48.206;16.402;2023-05-23T03:54:51;99286.47;;;16.82;95.34
13869;BME280;7004;48.206;16.402;2023-05-23T03:57:17;99292.53;;;16.65;96.84
13869;BME280;7004;48.206;16.402;2023-05-23T03:59:43;99282.13;;;16.81;96.29
13869;BME280;7004;48.206;16.402;2023-05-23T04:02:09;99278.31;;;16.84;95.64
13869;BME280;7004;48.206;16.402;2023-05-23T04:04:36;99277.38;;;16.65;97.16
13869;BME280;7004;48.206;16.402;2023-05-23T04:07:02;99281.34;;;16.61;98.07
13869;BME280;7004;48.206;16.402;2023-05-23T04:09:30;99284.09;;;16.79;97.40
13869;BME280;7004;48.206;16.402;2023-05-23T04:11:57;99277.63;;;16.72;97.67
13869;BME280;7004;48.206;16.402;2023-05-23T04:14:23;99287.31;;;16.83;97.21
13869;BME280;7004;48.206;16.402;2023-05-23T04:16:49;99292.19;;;16.87;96.39
13869;BME280;7004;48.206;16.402;2023-05-23T04:19:15;99290.84;;;17.01;96.43
13869;BME280;7004;48.206;16.402;2023-05-23T04:21:41;99292.91;;;16.89;97.12
13869;BME280;7004;48.206;16.402;2023-05-23T04:24:07;99294.34;;;16.84;97.42
13869;BME280;7004;48.206;16.402;2023-05-23T04:26:33;99288.78;;;16.95;97.62
13869;BME280;7004;48.206;16.402;2023-05-23T04:29:02;99287.59;;;17.07;97.99
13869;BME280;7004;48.206;16.402;2023-05-23T04:31:29;99279.44;;;17.09;97.56
13869;BME280;7004;48.206;16.402;2023-05-23T04:33:55;99280.75;;;17.05;98.26
13869;BME280;7004;48.206;16.402;2023-05-23T04:36:22;99278.84;;;17.15;97.82
13869;BME280;7004;48.206;16.402;2023-05-23T04:38:48;99287.00;;;17.13;98.62
13869;BME280;7004;48.206;16.402;2023-05-23T04:41:14;99287.34;;;17.28;98.15
13869;BME280;7004;48.206;16.402;2023-05-23T04:43:41;99291.28;;;17.24;98.36
13869;BME280;7004;48.206;16.402;2023-05-23T04:46:10;99288.13;;;17.38;98.03
13869;BME280;7004;48.206;16.402;2023-05-23T04:48:39;99290.88;;;17.82;95.33
13869;BME280;7004;48.206;16.402;2023-05-23T04:51:05;99286.81;;;17.96;95.07
13869;BME280;7004;48.206;16.402;2023-05-23T04:53:33;99295.59;;;18.06;94.29
13869;BME280;7004;48.206;16.402;2023-05-23T04:55:59;99292.94;;;17.88;96.25
13869;BME280;7004;48.206;16.402;2023-05-23T04:58:26;99297.00;;;17.93;96.34
13869;BME280;7004;48.206;16.402;2023-05-23T05:00:52;99295.47;;;17.90;97.86
13869;BME280;7004;48.206;16.402;2023-05-23T05:03:18;99288.25;;;18.34;93.92
13869;BME280;7004;48.206;16.402;2023-05-23T05:05:44;99292.50;;;18.45;92.72
13869;BME280;7004;48.206;16.402;2023-05-23T05:08:10;99291.91;;;18.60;92.05
13869;BME280;7004;48.206;16.402;2023-05-23T05:10:41;99284.72;;;18.60;92.44
13869;BME280;7004;48.206;16.402;2023-05-23T05:13:07;99287.19;;;18.53;93.60
13869;BME280;7004;48.206;16.402;2023-05-23T05:15:33;99279.25;;;18.70;93.23
13869;BME280;7004;48.206;16.402;2023-05-23T05:17:59;99272.13;;;18.79;93.18
13869;BME280;7004;48.206;16.402;2023-05-23T05:20:25;99271.16;;;18.62;95.40
13869;BME280;7004;48.206;16.402;2023-05-23T05:22:56;99287.88;;;18.55;94.71
13869;BME280;7004;48.206;16.402;2023-05-23T05:25:23;99280.72;;;18.98;92.56
13869;BME280;7004;48.206;16.402;2023-05-23T05:27:49;99290.34;;;19.17;92.26
13869;BME280;7004;48.206;16.402;2023-05-23T05:30:15;99284.69;;;19.45;90.61
13869;BME280;7004;48.206;16.402;2023-05-23T05:32:41;99292.59;;;19.47;90.28
13869;BME280;7004;48.206;16.402;2023-05-23T05:35:11;99297.25;;;19.36;89.64
13869;BME280;7004;48.206;16.402;2023-05-23T05:37:39;99298.91;;;19.29;88.54
13869;BME280;7004;48.206;16.402;2023-05-23T05:40:05;99292.44;;;19.64;87.10
13869;BME280;7004;48.206;16.402;2023-05-23T05:42:33;99297.97;;;19.55;87.91
13869;BME280;7004;48.206;16.402;2023-05-23T05:44:59;99296.69;;;19.16;88.51
13869;BME280;7004;48.206;16.402;2023-05-23T05:47:25;99295.63;;;19.60;87.98
13869;BME280;7004;48.206;16.402;2023-05-23T05:49:51;99296.44;;;19.60;85.96
13869;BME280;7004;48.206;16.402;2023-05-23T05:52:17;99293.16;;;19.99;83.38
13869;BME280;7004;48.206;16.402;2023-05-23T05:54:43;99288.41;;;20.42;82.08
13869;BME280;7004;48.206;16.402;2023-05-23T05:57:09;99287.56;;;20.34;81.99
13869;BME280;7004;48.206;16.402;2023-05-23T05:59:35;99286.91;;;20.40;81.22
13869;BME280;7004;48.206;16.402;2023-05-23T06:02:01;99290.81;;;19.96;81.19
13869;BME280;7004;48.206;16.402;2023-05-23T06:04:27;99290.13;;;20.02;80.43
13869;BME280;7004;48.206;16.402;2023-05-23T06:06:53;99285.94;;;20.08;80.69
13869;BME280;7004;48.206;16.402;2023-05-23T06:09:19;99285.25;;;20.22;78.99
13869;BME280;7004;48.206;16.402;2023-05-23T06:11:46;99291.66;;;20.13;78.13
13869;BME280;7004;48.206;16.402;2023-05-23T06:14:12;99292.31;;;19.82;76.63
13869;BME280;7004;48.206;16.402;2023-05-23T06:16:38;99285.38;;;20.45;73.41
13869;BME280;7004;48.206;16.402;2023-05-23T06:19:04;99291.28;;;20.24;73.47
13869;BME280;7004;48.206;16.402;2023-05-23T06:21:30;99279.97;;;20.54;73.26
13869;BME280;7004;48.206;16.402;2023-05-23T06:23:56;99281.31;;;20.66;74.59
13869;BME280;7004;48.206;16.402;2023-05-23T06:26:22;99282.00;;;20.68;72.13
13869;BME280;7004;48.206;16.402;2023-05-23T06:28:48;99279.63;;;21.12;71.25
13869;BME280;7004;48.206;16.402;2023-05-23T06:31:14;99285.56;;;21.31;68.90
13869;BME280;7004;48.206;16.402;2023-05-23T06:33:40;99283.69;;;21.86;66.39
13869;BME280;7004;48.206;16.402;2023-05-23T06:36:07;99284.38;;;22.25;66.24
13869;BME280;7004;48.206;16.402;2023-05-23T06:38:33;99287.19;;;22.09;67.54
13869;BME280;7004;48.206;16.402;2023-05-23T06:40:59;99282.94;;;22.53;64.48
13869;BME280;7004;48.206;16.402;2023-05-23T06:43:26;99285.25;;;22.56;64.15
13869;BME280;7004;48.206;16.402;2023-05-23T06:45:53;99281.88;;;23.13;63.33
13869;BME280;7004;48.206;16.402;2023-05-23T06:48:19;99284.03;;;22.58;65.22
13869;BME280;7004;48.206;16.402;2023-05-23T06:50:45;99278.19;;;22.55;63.04
13869;BME280;7004;48.206;16.402;2023-05-23T06:53:11;99273.38;;;23.52;62.19
13869;BME280;7004;48.206;16.402;2023-05-23T06:55:37;99274.56;;;23.86;60.26
13869;BME280;7004;48.206;16.402;2023-05-23T06:58:03;99273.69;;;24.01;59.40
13869;BME280;7004;48.206;16.402;2023-05-23T07:00:30;99270.03;;;23.29;60.51
13869;BME280;7004;48.206;16.402;2023-05-23T07:02:56;99268.47;;;24.55;59.21
13869;BME280;7004;48.206;16.402;2023-05-23T07:05:28;99269.13;;;24.29;58.92
13869;BME280;7004;48.206;16.402;2023-05-23T07:07:54;99268.22;;;24.22;59.17
13869;BME280;7004;48.206;16.402;2023-05-23T07:10:21;99257.50;;;25.05;56.16
13869;BME280;7004;48.206;16.402;2023-05-23T07:12:47;99269.91;;;24.86;56.62
13869;BME280;7004;48.206;16.402;2023-05-23T07:15:13;99260.75;;;25.42;55.19
13869;BME280;7004;48.206;16.402;2023-05-23T07:17:40;99267.00;;;24.94;56.71
13869;BME280;7004;48.206;16.402;2023-05-23T07:20:06;99264.25;;;24.81;56.69
13869;BME280;7004;48.206;16.402;2023-05-23T07:22:33;99258.75;;;25.09;55.19
13869;BME280;7004;48.206;16.402;2023-05-23T07:24:59;99260.31;;;24.49;53.69
13869;BME280;7004;48.206;16.402;2023-05-23T07:27:26;99256.00;;;25.57;52.65
13869;BME280;7004;48.206;16.402;2023-05-23T07:29:52;99251.25;;;26.06;51.35
13869;BME280;7004;48.206;16.402;2023-05-23T07:32:18;99253.97;;;25.99;52.24
13869;BME280;7004;48.206;16.402;2023-05-23T07:34:45;99251.63;;;25.63;53.30
13869;BME280;7004;48.206;16.402;2023-05-23T07:37:11;99247.47;;;25.67;52.92
13869;BME280;7004;48.206;16.402;2023-05-23T07:39:37;99246.47;;;26.01;53.46
13869;BME280;7004;48.206;16.402;2023-05-23T07:42:03;99247.91;;;26.44;50.79
13869;BME280;7004;48.206;16.402;2023-05-23T07:44:29;99237.66;;;26.46;50.81
13869;BME280;7004;48.206;16.402;2023-05-23T07:46:55;99234.09;;;27.17;50.76
13869;BME280;7004;48.206;16.402;2023-05-23T07:49:21;99239.75;;;26.30;52.50
13869;BME280;7004;48.206;16.402;2023-05-23T07:51:47;99231.19;;;27.12;51.18
13869;BME280;7004;48.206;16.402;2023-05-23T07:54:13;99232.16;;;26.86;51.82
13869;BME280;7004;48.206;16.402;2023-05-23T07:56:41;99231.97;;;27.26;48.94
13869;BME280;7004;48.206;16.402;2023-05-23T07:59:08;99229.88;;;27.59;47.82
13869;BME280;7004;48.206;16.402;2023-05-23T08:01:34;99227.00;;;27.79;47.82
13869;BME280;7004;48.206;16.402;2023-05-23T08:04:01;99231.41;;;27.10;48.22
13869;BME280;7004;48.206;16.402;2023-05-23T08:06:28;99224.00;;;27.31;47.88
13869;BME280;7004;48.206;16.402;2023-05-23T08:08:54;99218.03;;;27.79;46.98
13869;BME280;7004;48.206;16.402;2023-05-23T08:11:20;99217.88;;;28.24;47.26
13869;BME280;7004;48.206;16.402;2023-05-23T08:13:46;99219.38;;;26.21;50.52
13869;BME280;7004;48.206;16.402;2023-05-23T08:16:12;99213.50;;;28.23;45.90
13869;BME280;7004;48.206;16.402;2023-05-23T08:18:39;99210.88;;;28.09;45.86
13869;BME280;7004;48.206;16.402;2023-05-23T08:21:05;99207.75;;;27.87;47.53
13869;BME280;7004;48.206;16.402;2023-05-23T08:23:31;99211.00;;;28.40;46.72
13869;BME280;7004;48.206;16.402;2023-05-23T08:25:57;99203.56;;;28.72;42.99
13869;BME280;7004;48.206;16.402;2023-05-23T08:28:23;99214.16;;;28.18;43.84
13869;BME280;7004;48.206;16.402;2023-05-23T08:30:49;99210.53;;;28.49;42.41
13869;BME280;7004;48.206;16.402;2023-05-23T08:33:16;99208.31;;;27.01;43.75
13869;BME280;7004;48.206;16.402;2023-05-23T08:35:42;99204.25;;;28.67;41.20
13869;BME280;7004;48.206;16.402;2023-05-23T08:38:09;99201.81;;;27.02;41.46
13869;BME280;7004;48.206;16.402;2023-05-23T08:40:35;99198.78;;;29.34;38.92
13869;BME280;7004;48.206;16.402;2023-05-23T08:43:02;99197.28;;;28.71;41.29
13869;BME280;7004;48.206;16.402;2023-05-23T08:45:28;99203.56;;;29.21;40.36
13869;BME280;7004;48.206;16.402;2023-05-23T08:47:55;99197.22;;;28.60;39.55
13869;BME280;7004;48.206;16.402;2023-05-23T08:50:27;99203.09;;;28.38;40.34
13869;BME280;7004;48.206;16.402;2023-05-23T08:52:58;99190.03;;;28.84;39.37
13869;BME280;7004;48.206;16.402;2023-05-23T08:55:27;99195.34;;;29.39;40.16
13869;BME280;7004;48.206;16.402;2023-05-23T08:57:55;99194.94;;;29.24;38.61
13869;BME280;7004;48.206;16.402;2023-05-23T09:00:23;99198.31;;;29.37;39.79
13869;BME280;7004;48.206;16.402;2023-05-23T09:02:50;99202.94;;;29.49;38.32
13869;BME280;7004;48.206;16.402;2023-05-23T09:05:16;99203.84;;;29.73;37.75
13869;BME280;7004;48.206;16.402;2023-05-23T09:07:46;99188.59;;;29.42;38.77
13869;BME280;7004;48.206;16.402;2023-05-23T09:10:14;99194.28;;;30.05;37.24
13869;BME280;7004;48.206;16.402;2023-05-23T09:12:45;99186.78;;;30.48;37.96
13869;BME280;7004;48.206;16.402;2023-05-23T09:15:12;99189.97;;;30.57;37.30
13869;BME280;7004;48.206;16.402;2023-05-23T09:17:38;99190.97;;;30.91;36.92
13869;BME280;7004;48.206;16.402;2023-05-23T09:20:16;99186.00;;;30.12;37.13
13869;BME280;7004;48.206;16.402;2023-05-23T09:22:47;99179.25;;;30.90;35.65
13869;BME280;7004;48.206;16.402;2023-05-23T09:25:14;99184.59;;;30.85;35.85
13869;BME280;7004;48.206;16.402;2023-05-23T09:27:41;99192.75;;;30.10;37.43
13869;BME280;7004;48.206;16.402;2023-05-23T09:30:10;99187.63;;;30.01;37.78
13869;BME280;7004;48.206;16.402;2023-05-23T09:32:38;99189.19;;;30.33;38.18
13869;BME280;7004;48.206;16.402;2023-05-23T09:35:08;99192.97;;;30.43;38.45
13869;BME280;7004;48.206;16.402;2023-05-23T09:37:42;99189.50;;;30.60;35.41
13869;BME280;7004;48.206;16.402;2023-05-23T09:40:12;99194.97;;;29.77;35.64
13869;BME280;7004;48.206;16.402;2023-05-23T09:42:46;99198.06;;;30.16;35.44
13869;BME280;7004;48.206;16.402;2023-05-23T09:45:15;99199.25;;;29.43;36.75
13869;BME280;7004;48.206;16.402;2023-05-23T09:47:52;99202.22;;;30.07;36.01
13869;BME280;7004;48.206;16.402;2023-05-23T09:50:19;99199.25;;;29.97;36.90
13869;BME280;7004;48.206;16.402;2023-05-23T09:52:45;99195.59;;;29.91;37.07
13869;BME280;7004;48.206;16.402;2023-05-23T09:55:16;99192.34;;;30.53;36.39
13869;BME280;7004;48.206;16.402;2023-05-23T09:57:43;99182.19;;;31.18;35.50
13869;BME280;7004;48.206;16.402;2023-05-23T10:00:11;99194.88;;;30.08;38.50
13869;BME280;7004;48.206;16.402;2023-05-23T10:03:10;99197.16;;;29.57;37.65
13869;BME280;7004;48.206;16.402;2023-05-23T10:05:48;99179.19;;;30.62;36.82
13869;BME280;7004;48.206;16.402;2023-05-23T10:08:35;99187.69;;;30.65;37.92
13869;BME280;7004;48.206;16.402;2023-05-23T10:11:33;99195.44;;;30.57;39.40
13869;BME280;7004;48.206;16.402;2023-05-23T10:14:09;99184.91;;;30.89;35.21
13869;BME280;7004;48.206;16.402;2023-05-23T10:17:01;99188.56;;;30.19;38.34
13869;BME280;7004;48.206;16.402;2023-05-23T10:22:23;99183.81;;;30.61;36.05
13869;BME280;7004;48.206;16.402;2023-05-23T10:24:50;99190.19;;;30.67;35.78
13869;BME280;7004;48.206;16.402;2023-05-23T10:27:16;99190.84;;;30.34;35.95
13869;BME280;7004;48.206;16.402;2023-05-23T10:29:43;99171.91;;;31.08;36.14
13869;BME280;7004;48.206;16.402;2023-05-23T10:32:10;99188.25;;;29.38;37.70
13869;BME280;7004;48.206;16.402;2023-05-23T10:37:44;99172.53;;;30.69;37.60
13869;BME280;7004;48.206;16.402;2023-05-23T10:40:41;99162.28;;;30.77;36.36
13869;BME280;7004;48.206;16.402;2023-05-23T10:46:13;99144.38;;;31.09;36.66
13869;BME280;7004;48.206;16.402;2023-05-23T10:48:43;99162.63;;;30.40;36.46
13869;BME280;7004;48.206;16.402;2023-05-23T10:51:13;99151.47;;;30.94;35.37
13869;BME280;7004;48.206;16.402;2023-05-23T10:53:44;99150.59;;;30.64;35.73
13869;BME280;7004;48.206;16.402;2023-05-23T10:56:20;99149.25;;;30.26;37.58
13869;BME280;7004;48.206;16.402;2023-05-23T10:58:56;99152.16;;;29.43;36.14
13869;BME280;7004;48.206;16.402;2023-05-23T11:01:26;99165.47;;;29.74;36.15
13869;BME280;7004;48.206;16.402;2023-05-23T11:03:52;99144.13;;;29.48;35.24
13869;BME280;7004;48.206;16.402;2023-05-23T11:06:41;99142.84;;;28.90;36.41
13869;BME280;7004;48.206;16.402;2023-05-23T11:11:54;99134.16;;;29.30;35.30
13869;BME280;7004;48.206;16.402;2023-05-23T11:17:16;99133.84;;;30.32;35.13
13869;BME280;7004;48.206;16.402;2023-05-23T11:20:06;99119.69;;;30.47;33.88
13869;BME280;7004;48.206;16.402;2023-05-23T11:22:35;99122.44;;;30.76;34.16
13869;BME280;7004;48.206;16.402;2023-05-23T11:25:07;99109.56;;;31.17;33.49
13869;BME280;7004;48.206;16.402;2023-05-23T11:27:38;99094.97;;;30.65;35.10
13869;BME280;7004;48.206;16.402;2023-05-23T11:30:15;99098.59;;;31.45;35.05
13869;BME280;7004;48.206;16.402;2023-05-23T11:32:52;99093.75;;;31.02;36.51
13869;BME280;7004;48.206;16.402;2023-05-23T11:35:20;99097.75;;;31.28;34.94
13869;BME280;7004;48.206;16.402;2023-05-23T11:37:46;99098.25;;;31.59;35.31
13869;BME280;7004;48.206;16.402;2023-05-23T11:40:38;99116.38;;;30.45;36.43
13869;BME280;7004;48.206;16.402;2023-05-23T11:43:07;99116.53;;;31.24;36.87
13869;BME280;7004;48.206;16.402;2023-05-23T11:45:36;99119.50;;;31.06;35.33
13869;BME280;7004;48.206;16.402;2023-05-23T11:48:09;99114.66;;;30.67;35.37
13869;BME280;7004;48.206;16.402;2023-05-23T11:50:53;99121.09;;;29.74;36.21
13869;BME280;7004;48.206;16.402;2023-05-23T11:53:21;99114.75;;;30.20;36.49
13869;BME280;7004;48.206;16.402;2023-05-23T11:55:57;99112.06;;;29.08;34.73
13869;BME280;7004;48.206;16.402;2023-05-23T11:58:33;99122.25;;;29.66;34.30
13869;BME280;7004;48.206;16.402;2023-05-23T12:01:01;99114.59;;;29.21;35.23
13869;BME280;7004;48.206;16.402;2023-05-23T12:03:45;99109.59;;;29.83;34.92
13869;BME280;7004;48.206;16.402;2023-05-23T12:06:22;99095.84;;;29.90;33.49
13869;BME280;7004;48.206;16.402;2023-05-23T12:08:51;99104.78;;;30.14;33.64
13869;BME280;7004;48.206;16.402;2023-05-23T12:11:17;99096.69;;;29.79;34.42
13869;BME280;7004;48.206;16.402;2023-05-23T12:13:43;99099.84;;;29.64;34.37
13869;BME280;7004;48.206;16.402;2023-05-23T12:16:13;99096.06;;;29.53;34.23
13869;BME280;7004;48.206;16.402;2023-05-23T12:18:41;99096.31;;;29.64;34.68
13869;BME280;7004;48.206;16.402;2023-05-23T12:21:08;99103.88;;;29.50;31.51
13869;BME280;7004;48.206;16.402;2023-05-23T12:23:35;99105.28;;;29.40;34.21
13869;BME280;7004;48.206;16.402;2023-05-23T12:26:05;99099.53;;;28.77;33.92
13869;BME280;7004;48.206;16.402;2023-05-23T12:28:42;99098.19;;;29.51;34.26
13869;BME280;7004;48.206;16.402;2023-05-23T12:31:17;99096.41;;;30.16;33.48
13869;BME280;7004;48.206;16.402;2023-05-23T12:33:45;99099.88;;;29.88;33.98
13869;BME280;7004;48.206;16.402;2023-05-23T12:36:22;99088.59;;;30.60;33.94
13869;BME280;7004;48.206;16.402;2023-05-23T12:38:48;99099.00;;;30.11;35.31
13869;BME280;7004;48.206;16.402;2023-05-23T12:41:17;99099.22;;;30.21;34.98
13869;BME280;7004;48.206;16.402;2023-05-23T12:43:55;99104.34;;;30.05;34.57
13869;BME280;7004;48.206;16.402;2023-05-23T12:46:23;99100.31;;;30.08;34.75
13869;BME280;7004;48.206;16.402;2023-05-23T12:48:50;99111.44;;;29.59;34.09
13869;BME280;7004;48.206;16.402;2023-05-23T12:51:17;99100.88;;;29.16;35.22
13869;BME280;7004;48.206;16.402;2023-05-23T12:53:44;99102.34;;;29.42;34.76
13869;BME280;7004;48.206;16.402;2023-05-23T12:56:10;99098.09;;;28.74;36.80
13869;BME280;7004;48.206;16.402;2023-05-23T12:58:36;99099.69;;;29.12;35.37
13869;BME280;7004;48.206;16.402;2023-05-23T13:01:03;99102.53;;;28.57;37.04
13869;BME280;7004;48.206;16.402;2023-05-23T13:03:29;99098.09;;;28.44;38.29
13869;BME280;7004;48.206;16.402;2023-05-23T13:05:59;99092.19;;;28.28;38.41
13869;BME280;7004;48.206;16.402;2023-05-23T13:08:26;99092.50;;;28.39;38.08
13869;BME280;7004;48.206;16.402;2023-05-23T13:10:55;99089.19;;;28.18;38.72
13869;BME280;7004;48.206;16.402;2023-05-23T13:13:22;99090.25;;;28.96;37.95
13869;BME280;7004;48.206;16.402;2023-05-23T13:15:48;99091.19;;;28.41;40.12
13869;BME280;7004;48.206;16.402;2023-05-23T13:18:15;99085.06;;;28.64;38.97
13869;BME280;7004;48.206;16.402;2023-05-23T13:20:41;99088.91;;;28.75;38.98
13869;BME280;7004;48.206;16.402;2023-05-23T13:23:07;99088.50;;;28.23;39.89